Time;durP1;ratioP1;P1;durP2;ratioP2;P2;SDS_P1;SDS_P2;PMS_P1;PMS_P2;Temp;Humidity;BMP_temperature;BMP_pressure;BME280_temperature;BME280_humidity;BME280_pressure;Samples;Min_cycle;Max_cycle;Signal;HPM_P1;HPM_P2
2022/12/02 00:01:13;;;;;;;52.65;28.40;;;3.50;99.90;;;;;;6213185;23;20146;-85
2022/12/02 00:03:40;;;;;;;50.25;28.02;;;2.90;99.90;;;;;;6212160;23;20030;-84
2022/12/02 00:06:15;;;;;;;53.28;28.65;;;3.60;99.90;;;;;;6213205;23;20448;-85
2022/12/02 00:08:41;;;;;;;47.90;28.55;;;2.90;99.90;;;;;;6188839;23;20023;-85
2022/12/02 00:11:24;;;;;;;49.35;27.55;;;2.90;99.90;;;;;;6211635;23;20020;-85
2022/12/02 00:13:50;;;;;;;51.58;27.88;;;3.70;99.90;;;;;;6212761;23;20046;-85
2022/12/02 00:16:20;;;;;;;49.20;27.88;;;3.00;99.90;;;;;;6207233;23;20021;-86
2022/12/02 00:18:47;;;;;;;48.85;27.55;;;3.80;99.90;;;;;;6207036;23;20473;-86
2022/12/02 00:21:12;;;;;;;56.47;29.00;;;3.30;99.90;;;;;;6234021;23;20092;-85
2022/12/02 00:23:38;;;;;;;49.03;27.38;;;3.50;99.90;;;;;;6207813;23;20052;-86
2022/12/02 00:26:03;;;;;;;52.20;28.48;;;3.20;99.90;;;;;;6207404;23;20352;-86
2022/12/02 00:28:29;;;;;;;51.38;27.30;;;3.00;99.90;;;;;;6208618;23;20028;-86
2022/12/02 00:30:55;;;;;;;51.25;26.52;;;3.20;99.90;;;;;;6207302;23;20091;-85
2022/12/02 00:33:20;;;;;;;49.97;27.20;;;3.70;99.90;;;;;;6207272;23;20048;-85
2022/12/02 00:35:46;;;;;;;52.08;28.10;;;3.00;99.90;;;;;;6183398;23;20044;-85
2022/12/02 00:38:12;;;;;;;54.58;29.55;;;2.40;99.90;;;;;;6181689;23;20337;-86
2022/12/02 00:40:37;;;;;;;50.35;27.52;;;4.00;99.90;;;;;;6208554;23;20043;-86
2022/12/02 00:48:32;;;;;;;51.25;27.45;;;3.80;99.90;;;;;;6207370;23;20031;-85
2022/12/02 00:50:58;;;;;;;48.10;25.80;;;2.90;99.90;;;;;;6233055;23;20090;-86
2022/12/02 00:53:23;;;;;;;44.70;24.17;;;3.60;99.90;;;;;;6232841;23;20020;-85
2022/12/02 00:55:49;;;;;;;48.42;25.10;;;3.30;99.90;;;;;;6208288;23;20024;-86
2022/12/02 00:58:15;;;;;;;47.75;24.40;;;3.80;99.90;;;;;;6207842;23;20021;-86
2022/12/02 01:00:40;;;;;;;46.13;23.65;;;3.60;99.90;;;;;;6207051;23;20091;-85
2022/12/02 01:03:06;;;;;;;45.65;23.83;;;3.00;99.90;;;;;;6181874;23;20073;-85
2022/12/02 01:05:32;;;;;;;44.75;24.17;;;3.10;99.90;;;;;;6207457;23;20119;-86
2022/12/02 01:07:58;;;;;;;46.35;23.63;;;3.40;99.90;;;;;;6207377;23;20146;-85
2022/12/02 01:10:23;;;;;;;43.42;23.38;;;3.90;99.90;;;;;;6183675;23;20016;-85
2022/12/02 01:12:49;;;;;;;45.90;24.20;;;2.90;99.90;;;;;;6181437;23;20012;-85
2022/12/02 01:15:15;;;;;;;45.70;22.77;;;3.80;99.90;;;;;;6207946;23;20013;-85
2022/12/02 01:17:40;;;;;;;49.78;24.05;;;3.30;99.90;;;;;;6207046;23;20016;-85
2022/12/02 01:20:06;;;;;;;50.60;22.83;;;3.70;99.90;;;;;;6231849;23;20009;-86
2022/12/02 01:22:32;;;;;;;46.55;23.40;;;2.90;99.90;;;;;;6208230;23;20016;-86
2022/12/02 01:24:58;;;;;;;42.42;22.90;;;2.90;99.90;;;;;;6207121;23;20016;-85
2022/12/02 01:27:23;;;;;;;42.95;22.90;;;2.90;99.90;;;;;;6232809;23;20019;-85
2022/12/02 01:29:49;;;;;;;44.20;23.00;;;2.80;99.90;;;;;;6208026;23;20020;-85
2022/12/02 01:32:15;;;;;;;51.63;23.55;;;2.80;99.90;;;;;;6206249;23;20090;-85
2022/12/02 01:34:41;;;;;;;54.17;24.23;;;3.00;99.90;;;;;;6207146;23;20044;-86
2022/12/02 01:37:07;;;;;;;46.28;24.20;;;2.80;99.90;;;;;;6206662;23;20041;-85
2022/12/02 01:39:33;;;;;;;45.35;23.67;;;2.90;99.90;;;;;;6183538;23;20017;-85
2022/12/02 01:41:59;;;;;;;49.25;24.05;;;2.80;99.90;;;;;;6181450;23;20013;-85
2022/12/02 01:44:24;;;;;;;49.42;24.67;;;3.10;99.90;;;;;;6182858;23;20020;-85
2022/12/02 01:46:50;;;;;;;50.90;25.83;;;3.60;99.90;;;;;;6182583;23;20016;-85
2022/12/02 01:49:16;;;;;;;51.22;25.20;;;2.80;99.90;;;;;;6205127;23;20024;-85
2022/12/02 01:51:42;;;;;;;51.15;26.40;;;2.80;99.90;;;;;;6207940;23;20048;-85
2022/12/02 01:54:08;;;;;;;56.03;26.05;;;3.10;99.90;;;;;;6207378;23;20025;-85
2022/12/02 01:56:34;;;;;;;60.55;28.27;;;2.90;99.90;;;;;;6206860;23;20014;-86
2022/12/02 01:59:00;;;;;;;53.78;27.05;;;3.60;99.90;;;;;;6207067;23;20461;-85
2022/12/02 02:01:28;;;;;;;51.38;26.38;;;2.80;99.90;;;;;;6232700;23;20087;-85
2022/12/02 02:03:54;;;;;;;52.83;26.77;;;3.30;99.90;;;;;;6205841;23;20091;-85
2022/12/02 02:06:21;;;;;;;54.88;25.73;;;2.80;99.90;;;;;;6207562;23;20394;-86
2022/12/02 02:08:47;;;;;;;53.15;27.40;;;2.70;99.90;;;;;;6206449;23;20020;-86
2022/12/02 02:11:13;;;;;;;60.78;27.50;;;3.60;99.90;;;;;;6207909;23;20092;-86
2022/12/02 02:13:39;;;;;;;55.28;27.13;;;2.70;99.90;;;;;;6207095;23;20130;-85
2022/12/02 02:16:05;;;;;;;48.92;25.85;;;3.30;99.90;;;;;;6235878;23;20020;-85
2022/12/02 02:18:31;;;;;;;54.78;26.80;;;2.70;99.90;;;;;;6211540;23;20069;-85
2022/12/02 02:20:58;;;;;;;55.55;27.15;;;2.60;99.90;;;;;;6212310;23;20027;-85
2022/12/02 02:23:25;;;;;;;57.58;28.30;;;3.10;99.90;;;;;;6212302;23;20058;-86
2022/12/02 02:25:55;;;;;;;58.35;27.88;;;3.50;99.90;;;;;;6212347;23;20012;-86
2022/12/02 02:28:23;;;;;;;58.17;28.20;;;3.90;99.90;;;;;;6212142;23;20031;-86
2022/12/02 02:30:50;;;;;;;51.90;26.15;;;3.30;99.90;;;;;;6186507;23;20046;-86
2022/12/02 02:33:16;;;;;;;56.97;26.60;;;3.60;99.90;;;;;;6211506;23;20027;-86
2022/12/02 02:35:45;;;;;;;61.15;29.35;;;3.40;99.90;;;;;;6212430;23;20066;-85
2022/12/02 02:38:14;;;;;;;58.85;28.27;;;2.70;99.90;;;;;;6211047;23;20103;-85
2022/12/02 02:40:41;;;;;;;56.70;26.20;;;3.50;99.90;;;;;;6211991;23;20024;-85
2022/12/02 02:43:07;;;;;;;50.85;26.45;;;2.70;99.90;;;;;;6211351;23;20314;-85
2022/12/02 02:45:36;;;;;;;49.80;26.30;;;2.70;99.90;;;;;;6211381;23;20405;-85
2022/12/02 02:48:03;;;;;;;52.40;25.83;;;3.00;99.90;;;;;;6210651;23;20012;-86
2022/12/02 02:50:29;;;;;;;47.58;24.23;;;2.70;99.90;;;;;;6186947;23;20023;-85
2022/12/02 02:52:55;;;;;;;48.67;25.08;;;3.10;99.90;;;;;;6186072;23;20047;-85
2022/12/02 02:55:24;;;;;;;51.45;25.45;;;2.60;99.90;;;;;;6212163;23;20020;-86
2022/12/02 02:57:50;;;;;;;45.72;23.73;;;3.00;99.90;;;;;;6186499;23;20500;-85
2022/12/02 03:00:18;;;;;;;49.10;25.10;;;2.60;99.90;;;;;;6186183;23;20012;-86
2022/12/02 03:02:48;;;;;;;50.25;24.35;;;2.60;99.90;;;;;;6210569;23;20016;-85
2022/12/02 03:05:14;;;;;;;45.58;25.35;;;2.70;99.90;;;;;;6211344;23;20070;-85
2022/12/02 03:07:40;;;;;;;46.67;24.05;;;2.50;99.90;;;;;;6186455;23;20448;-85
2022/12/02 03:10:06;;;;;;;48.30;25.02;;;3.30;99.90;;;;;;6186819;23;20016;-85
2022/12/02 03:12:33;;;;;;;46.95;24.98;;;2.50;99.90;;;;;;6185457;23;20330;-85
2022/12/02 03:15:00;;;;;;;50.00;24.90;;;2.50;99.90;;;;;;6186465;23;20020;-85
2022/12/02 03:17:26;;;;;;;47.85;23.95;;;2.90;99.90;;;;;;6186255;23;20012;-85
2022/12/02 03:19:52;;;;;;;51.88;25.80;;;2.40;99.90;;;;;;6210593;23;20094;-85
2022/12/02 03:22:17;;;;;;;47.55;23.70;;;3.30;99.90;;;;;;6212027;23;20016;-85
2022/12/02 03:24:44;;;;;;;50.40;25.75;;;3.30;99.90;;;;;;6211957;23;20417;-86
2022/12/02 03:27:10;;;;;;;52.15;25.55;;;3.10;99.90;;;;;;6185994;23;20052;-85
2022/12/02 03:29:36;;;;;;;48.72;25.67;;;2.70;99.90;;;;;;6212682;23;20085;-85
2022/12/02 03:32:02;;;;;;;50.63;26.23;;;2.40;99.90;;;;;;6185232;23;20023;-85
2022/12/02 03:34:29;;;;;;;50.17;26.17;;;2.30;99.90;;;;;;6211360;23;20058;-85
2022/12/02 03:36:56;;;;;;;45.72;24.60;;;2.40;99.90;;;;;;6211128;23;20092;-85
2022/12/02 03:39:22;;;;;;;53.25;25.52;;;3.30;99.90;;;;;;6212507;23;20052;-85
2022/12/02 03:41:48;;;;;;;53.00;25.75;;;2.70;99.90;;;;;;6210465;23;20023;-85
2022/12/02 03:44:14;;;;;;;51.13;24.65;;;2.30;99.90;;;;;;6186926;23;20028;-85
2022/12/02 03:46:41;;;;;;;51.42;25.00;;;2.30;99.90;;;;;;6212008;23;20391;-85
2022/12/02 03:49:08;;;;;;;51.80;26.08;;;2.80;99.90;;;;;;6208981;23;20016;-85
2022/12/02 03:51:33;;;;;;;52.20;25.02;;;3.30;99.90;;;;;;6212126;23;20016;-85
2022/12/02 03:54:00;;;;;;;50.75;26.38;;;2.80;99.90;;;;;;6210645;23;20043;-85
2022/12/02 03:56:26;;;;;;;53.53;26.05;;;3.10;99.90;;;;;;6236417;23;20128;-85
2022/12/02 03:58:52;;;;;;;48.92;24.80;;;3.30;99.90;;;;;;6211938;23;20055;-85
2022/12/02 04:01:20;;;;;;;50.05;24.52;;;2.30;99.90;;;;;;6210714;23;20035;-85
2022/12/02 04:03:46;;;;;;;47.45;24.58;;;2.80;99.90;;;;;;6185785;23;20019;-85
2022/12/02 04:06:12;;;;;;;53.75;26.20;;;2.50;99.90;;;;;;6211049;23;20013;-85
2022/12/02 04:08:38;;;;;;;55.40;26.17;;;2.40;99.90;;;;;;6211480;23;20419;-85
2022/12/02 04:11:04;;;;;;;58.10;26.63;;;2.40;99.90;;;;;;6185931;23;20020;-85
2022/12/02 04:13:30;;;;;;;54.03;26.67;;;2.40;99.90;;;;;;6212800;23;20020;-85
2022/12/02 04:15:56;;;;;;;52.65;25.58;;;2.90;99.90;;;;;;6185925;23;20337;-85
2022/12/02 04:18:22;;;;;;;53.38;26.70;;;2.40;99.90;;;;;;6210903;23;20421;-85
2022/12/02 04:20:48;;;;;;;54.88;26.95;;;2.40;99.90;;;;;;6212039;23;20078;-85
2022/12/02 04:23:13;;;;;;;60.10;27.13;;;2.50;99.90;;;;;;6211619;23;20345;-85
2022/12/02 04:25:39;;;;;;;58.28;27.15;;;2.40;99.90;;;;;;6214341;23;20062;-85
2022/12/02 04:28:05;;;;;;;62.38;28.00;;;2.40;99.90;;;;;;6213222;23;20035;-85
2022/12/02 04:30:31;;;;;;;61.53;27.65;;;3.30;99.90;;;;;;6187926;23;20066;-86
2022/12/02 04:32:56;;;;;;;62.03;27.38;;;3.10;99.90;;;;;;6212337;23;20368;-85
2022/12/02 04:35:22;;;;;;;60.28;28.35;;;2.40;99.90;;;;;;6213236;23;20087;-85
2022/12/02 04:37:50;;;;;;;60.70;27.90;;;2.40;99.90;;;;;;6186908;23;20027;-85
2022/12/02 04:40:16;;;;;;;59.92;27.98;;;3.30;99.90;;;;;;6213193;23;20020;-85
2022/12/02 04:42:42;;;;;;;59.30;27.55;;;3.10;99.90;;;;;;6188598;23;20308;-86
2022/12/02 04:45:09;;;;;;;61.13;27.83;;;2.50;99.90;;;;;;6187313;23;20051;-86
2022/12/02 04:47:34;;;;;;;62.28;28.40;;;2.40;99.90;;;;;;6212135;23;20393;-86
2022/12/02 04:50:01;;;;;;;60.25;28.27;;;3.00;99.90;;;;;;6187749;23;20016;-86
2022/12/02 04:52:26;;;;;;;60.15;28.67;;;2.80;99.90;;;;;;6187502;23;20020;-86
2022/12/02 04:54:52;;;;;;;63.50;28.02;;;2.50;99.90;;;;;;6212651;23;20024;-85
2022/12/02 04:57:17;;;;;;;67.03;28.55;;;2.80;99.90;;;;;;6187829;23;20039;-85
2022/12/02 04:59:43;;;;;;;64.20;28.88;;;3.50;99.90;;;;;;6212187;23;20038;-85
2022/12/02 05:02:09;;;;;;;59.35;28.30;;;2.40;99.90;;;;;;6187443;23;20081;-85
2022/12/02 05:04:34;;;;;;;60.05;28.45;;;2.80;99.90;;;;;;6212605;23;20024;-85
2022/12/02 05:07:00;;;;;;;59.78;28.77;;;2.60;99.90;;;;;;6187386;23;20016;-85
2022/12/02 05:09:26;;;;;;;57.15;28.85;;;2.70;99.90;;;;;;6213430;23;20028;-85
2022/12/02 05:11:51;;;;;;;62.67;29.05;;;2.50;99.90;;;;;;6186544;23;20047;-85
2022/12/02 05:14:17;;;;;;;61.97;29.17;;;3.10;99.90;;;;;;6212698;23;20511;-85
2022/12/02 05:16:42;;;;;;;59.83;28.33;;;2.70;99.90;;;;;;6188222;23;20012;-85
2022/12/02 05:19:08;;;;;;;61.00;28.75;;;3.10;99.90;;;;;;6210627;23;20020;-85
2022/12/02 05:21:34;;;;;;;60.70;28.92;;;2.40;99.90;;;;;;6188251;23;20440;-85
2022/12/02 05:23:59;;;;;;;59.28;28.05;;;2.40;99.90;;;;;;6183870;23;20401;-85
2022/12/02 05:26:25;;;;;;;58.30;27.75;;;3.40;99.90;;;;;;6186868;23;20018;-85
2022/12/02 05:28:51;;;;;;;65.57;29.35;;;2.40;99.90;;;;;;6186654;23;20058;-85
2022/12/02 05:31:16;;;;;;;60.17;28.05;;;3.30;99.90;;;;;;6212381;23;20078;-86
2022/12/02 05:33:42;;;;;;;57.95;27.02;;;3.10;99.90;;;;;;6211495;23;20031;-85
2022/12/02 05:36:11;;;;;;;60.33;27.67;;;2.40;99.90;;;;;;6212605;23;20016;-85
2022/12/02 05:38:38;;;;;;;59.30;28.42;;;2.40;99.90;;;;;;6188009;23;20153;-85
2022/12/02 05:41:04;;;;;;;67.13;29.52;;;3.20;99.90;;;;;;6212270;23;20055;-85
2022/12/02 05:43:36;;;;;;;67.28;29.85;;;2.60;99.90;;;;;;6212392;23;20394;-85
2022/12/02 05:46:11;;;;;;;71.90;31.95;;;2.70;99.90;;;;;;6211931;23;20028;-85
2022/12/02 05:48:37;;;;;;;68.88;29.60;;;2.40;99.90;;;;;;6186236;23;20087;-86
2022/12/02 05:51:08;;;;;;;74.53;31.00;;;3.00;99.90;;;;;;6211776;23;20016;-85
2022/12/02 05:53:34;;;;;;;74.45;30.73;;;2.40;99.90;;;;;;6212921;23;20043;-85
2022/12/02 05:56:00;;;;;;;78.10;30.88;;;3.00;99.90;;;;;;6235995;23;20020;-85
2022/12/02 05:58:26;;;;;;;74.95;31.30;;;3.20;99.90;;;;;;6212734;23;20035;-85
2022/12/02 06:00:56;;;;;;;73.32;30.17;;;3.20;99.90;;;;;;6186801;23;20008;-85
2022/12/02 06:03:21;;;;;;;73.55;31.95;;;2.70;99.90;;;;;;6211789;23;20026;-85
2022/12/02 06:05:48;;;;;;;79.97;30.67;;;2.80;99.90;;;;;;6212629;23;20094;-85
2022/12/02 06:08:17;;;;;;;73.65;30.67;;;2.70;99.90;;;;;;6210777;23;20047;-85
2022/12/02 06:10:48;;;;;;;72.00;30.25;;;2.90;99.90;;;;;;6213356;23;20348;-86
2022/12/02 06:13:20;;;;;;;77.63;30.23;;;2.80;99.90;;;;;;6212164;23;20016;-85
2022/12/02 06:15:48;;;;;;;71.15;30.30;;;2.50;99.90;;;;;;6185963;23;20012;-85
2022/12/02 06:18:16;;;;;;;79.50;31.55;;;3.10;99.90;;;;;;6186110;23;20071;-85
2022/12/02 06:20:44;;;;;;;76.10;31.10;;;3.10;99.90;;;;;;6212512;23;20031;-85
2022/12/02 06:23:15;;;;;;;80.93;32.13;;;3.10;99.90;;;;;;6186239;23;20024;-85
2022/12/02 06:25:41;;;;;;;69.50;30.35;;;3.50;99.90;;;;;;6187450;23;20082;-86
2022/12/02 06:28:28;;;;;;;70.32;29.45;;;3.30;99.90;;;;;;6211809;23;20023;-85
2022/12/02 06:31:15;;;;;;;86.47;32.20;;;2.40;99.90;;;;;;6211517;23;20012;-85
2022/12/02 06:33:42;;;;;;;72.03;29.95;;;2.50;99.90;;;;;;6187000;23;20456;-85
2022/12/02 06:36:14;;;;;;;76.25;32.35;;;3.30;99.90;;;;;;6210896;23;20444;-85
2022/12/02 06:38:46;;;;;;;75.18;32.08;;;2.60;99.90;;;;;;6212666;23;20082;-86
2022/12/02 06:41:15;;;;;;;78.10;31.65;;;3.30;99.90;;;;;;6212274;23;20325;-85
2022/12/02 06:45:03;;;;;;;75.20;29.92;;;2.60;99.90;;;;;;6185940;23;20020;-85
2022/12/02 06:46:27;;;;;;;72.03;31.35;;;2.50;99.90;;;;;;6212050;23;20070;-85
2022/12/02 06:48:53;;;;;;;78.20;31.85;;;3.30;99.90;;;;;;6211407;23;20469;-85
2022/12/02 06:51:19;;;;;;;67.85;30.77;;;2.50;99.90;;;;;;6211064;23;20019;-85
2022/12/02 06:53:46;;;;;;;71.40;32.05;;;2.60;99.90;;;;;;6186811;23;20101;-85
2022/12/02 06:56:12;;;;;;;72.35;31.70;;;3.20;99.90;;;;;;6186827;23;20019;-85
2022/12/02 06:58:45;;;;;;;72.50;31.35;;;2.60;99.90;;;;;;6186293;23;20020;-86
2022/12/02 07:01:27;;;;;;;74.22;31.65;;;2.70;99.90;;;;;;6237469;23;20424;-85
2022/12/02 07:04:08;;;;;;;72.38;31.25;;;2.70;99.90;;;;;;6211121;23;20016;-86
2022/12/02 07:06:40;;;;;;;79.50;32.33;;;2.60;99.90;;;;;;6212503;23;20389;-86
2022/12/02 07:09:15;;;;;;;79.10;33.77;;;2.70;99.90;;;;;;6186579;23;20103;-85
2022/12/02 07:11:49;;;;;;;76.90;32.83;;;3.60;99.90;;;;;;6211396;23;20247;-84
2022/12/02 07:14:24;;;;;;;81.28;32.17;;;2.60;99.90;;;;;;6187228;23;20515;-86
2022/12/02 07:16:50;;;;;;;78.47;32.50;;;2.70;99.90;;;;;;6207399;23;20475;-85
2022/12/02 07:19:19;;;;;;;72.15;30.98;;;3.70;99.90;;;;;;6205053;23;20633;-85
2022/12/02 07:21:46;;;;;;;80.10;32.22;;;3.70;99.90;;;;;;6207417;23;20023;-85
2022/12/02 07:24:15;;;;;;;79.95;33.13;;;3.50;99.90;;;;;;6206640;23;20021;-85
2022/12/02 07:26:45;;;;;;;77.63;32.67;;;3.20;99.90;;;;;;6207083;23;20021;-85
2022/12/02 07:29:15;;;;;;;83.38;32.35;;;3.40;99.90;;;;;;6206390;23;20437;-85
2022/12/02 07:31:43;;;;;;;80.30;32.80;;;3.40;99.90;;;;;;6207655;23;20214;-85
2022/12/02 07:34:11;;;;;;;75.72;32.70;;;2.70;99.90;;;;;;6179525;23;20017;-85
2022/12/02 07:36:37;;;;;;;82.93;32.72;;;3.00;99.90;;;;;;6207655;23;20025;-86
2022/12/02 07:39:02;;;;;;;76.03;33.22;;;3.60;99.90;;;;;;6206279;23;20028;-85
2022/12/02 07:41:28;;;;;;;85.20;34.03;;;2.70;99.90;;;;;;6206246;23;20020;-86
2022/12/02 07:43:54;;;;;;;72.43;33.28;;;3.60;99.90;;;;;;6182219;23;20464;-87
2022/12/02 07:46:20;;;;;;;75.85;33.67;;;3.60;99.90;;;;;;6205569;23;20417;-87
2022/12/02 07:48:45;;;;;;;76.70;33.17;;;2.80;99.90;;;;;;6206060;23;20020;-86
2022/12/02 07:51:11;;;;;;;72.70;31.33;;;2.80;99.90;;;;;;6206698;23;20013;-85
2022/12/02 07:53:37;;;;;;;70.57;30.80;;;2.80;99.90;;;;;;6180915;23;20024;-86
2022/12/02 07:56:03;;;;;;;71.57;32.60;;;3.80;99.90;;;;;;6182128;23;20012;-87
2022/12/02 07:58:28;;;;;;;73.18;33.05;;;2.70;99.90;;;;;;6233766;23;20017;-84
2022/12/02 08:00:54;;;;;;;68.93;32.00;;;2.60;99.90;;;;;;6207718;23;20028;-85
2022/12/02 08:03:19;;;;;;;70.97;30.20;;;2.60;99.90;;;;;;6207261;23;20028;-86
2022/12/02 08:05:45;;;;;;;67.00;29.35;;;2.60;99.90;;;;;;6208332;23;20155;-85
2022/12/02 08:08:11;;;;;;;62.95;29.27;;;3.70;99.90;;;;;;6207642;23;20027;-85
2022/12/02 08:10:36;;;;;;;66.10;27.33;;;3.00;99.90;;;;;;6183387;23;20024;-84
2022/12/02 08:13:02;;;;;;;64.07;28.00;;;2.40;99.90;;;;;;6208727;23;20016;-86
2022/12/02 08:16:10;;;;;;;56.13;25.65;;;3.50;99.90;;;;;;6207695;23;20024;-90
2022/12/02 08:18:44;;;;;;;63.10;29.10;;;2.40;99.90;;;;;;6209237;23;20036;-90
2022/12/02 08:21:29;;;;;;;65.25;28.98;;;2.70;99.90;;;;;;6160704;23;20025;-89
2022/12/02 08:23:55;;;;;;;68.68;27.73;;;2.50;99.90;;;;;;6182887;23;20016;-88
2022/12/02 08:26:20;;;;;;;67.70;29.20;;;1.70;99.90;;;;;;6158656;23;20059;-87
2022/12/02 08:28:46;;;;;;;64.05;27.63;;;2.30;99.90;;;;;;6159816;23;20012;-86
2022/12/02 08:31:12;;;;;;;64.80;27.80;;;2.80;99.90;;;;;;6184098;23;20436;-88
2022/12/02 08:33:38;;;;;;;71.72;29.13;;;2.20;99.90;;;;;;6158041;23;20024;-90
2022/12/02 08:36:04;;;;;;;70.25;28.35;;;3.30;99.90;;;;;;6158477;23;20039;-89
2022/12/02 08:41:20;;;;;;;68.80;29.02;;;2.10;99.90;;;;;;6183355;23;20516;-88
2022/12/02 08:43:46;;;;;;;69.30;29.17;;;2.10;99.90;;;;;;6157629;23;20024;-88
2022/12/02 08:46:12;;;;;;;68.05;29.50;;;2.70;99.90;;;;;;6158324;23;20449;-86
2022/12/02 08:48:38;;;;;;;75.85;29.85;;;2.10;99.90;;;;;;6158189;23;20019;-87
2022/12/02 08:51:04;;;;;;;72.75;29.52;;;2.10;99.90;;;;;;6182097;23;20101;-87
2022/12/02 08:53:30;;;;;;;69.07;30.90;;;2.10;99.90;;;;;;6158713;23;20440;-87
2022/12/02 08:55:55;;;;;;;78.22;31.02;;;2.10;99.90;;;;;;6158522;23;20013;-87
2022/12/02 08:58:21;;;;;;;67.80;28.58;;;3.20;99.90;;;;;;6157351;23;20024;-87
2022/12/02 09:00:47;;;;;;;70.57;28.77;;;3.00;99.90;;;;;;6158052;23;20031;-87
2022/12/02 09:03:13;;;;;;;62.22;26.58;;;3.10;99.90;;;;;;6181891;23;20086;-88
2022/12/02 09:05:40;;;;;;;61.28;25.15;;;2.10;99.90;;;;;;6182475;23;20024;-87
2022/12/02 09:08:06;;;;;;;62.50;26.17;;;3.10;99.90;;;;;;6183144;23;20032;-88
2022/12/02 09:10:32;;;;;;;64.57;26.13;;;3.10;99.90;;;;;;6183370;23;20009;-86
2022/12/02 09:12:58;;;;;;;73.32;28.02;;;2.80;99.90;;;;;;6156778;23;20142;-87
2022/12/02 09:15:24;;;;;;;65.38;27.02;;;3.10;99.90;;;;;;6183096;23;20472;-86
2022/12/02 09:17:50;;;;;;;74.85;27.60;;;3.00;99.90;;;;;;6175951;23;20028;-86
2022/12/02 09:20:16;;;;;;;75.07;27.95;;;2.40;99.90;;;;;;6188172;23;20043;-87
2022/12/02 09:22:48;;;;;;;75.20;28.42;;;2.00;99.90;;;;;;6212980;23;20462;-87
2022/12/02 09:25:14;;;;;;;77.28;29.30;;;2.10;99.90;;;;;;6187158;23;20425;-86
2022/12/02 09:27:41;;;;;;;74.00;27.83;;;2.10;99.90;;;;;;6187946;23;20157;-87
2022/12/02 09:30:08;;;;;;;67.32;28.50;;;2.10;99.90;;;;;;6188075;23;20020;-86
2022/12/02 09:32:34;;;;;;;76.28;29.45;;;2.10;99.90;;;;;;6211968;23;20016;-86
2022/12/02 09:35:00;;;;;;;66.70;28.17;;;2.00;99.90;;;;;;6212761;23;20016;-86
2022/12/02 09:37:26;;;;;;;75.75;29.60;;;2.10;99.90;;;;;;6213155;23;20109;-86
2022/12/02 09:39:52;;;;;;;71.85;28.63;;;2.30;99.90;;;;;;6186472;23;20100;-86
2022/12/02 09:42:18;;;;;;;67.95;27.15;;;3.00;99.90;;;;;;6212554;23;20111;-86
2022/12/02 09:44:46;;;;;;;61.90;26.77;;;2.10;99.90;;;;;;6212160;23;20024;-86
2022/12/02 09:47:12;;;;;;;66.38;27.60;;;2.20;99.90;;;;;;6185601;23;20016;-86
2022/12/02 09:49:39;;;;;;;66.28;28.30;;;2.70;99.90;;;;;;6187560;23;20390;-86
2022/12/02 09:52:12;;;;;;;59.88;25.00;;;2.50;99.90;;;;;;6212018;23;20051;-87
2022/12/02 09:54:38;;;;;;;64.38;25.40;;;2.80;99.90;;;;;;6211769;23;20027;-85
2022/12/02 09:57:11;;;;;;;61.38;26.25;;;2.70;99.90;;;;;;6186759;23;20020;-86
2022/12/02 09:59:37;;;;;;;66.80;27.13;;;3.20;99.90;;;;;;6212598;23;20023;-85
2022/12/02 10:02:03;;;;;;;57.47;24.90;;;2.60;99.90;;;;;;6211667;23;20020;-86
2022/12/02 10:04:29;;;;;;;59.55;26.20;;;2.30;99.90;;;;;;6212528;23;20391;-86
2022/12/02 10:06:55;;;;;;;56.60;26.25;;;3.20;99.90;;;;;;6187414;23;20016;-86
2022/12/02 10:09:27;;;;;;;59.83;27.80;;;3.40;99.90;;;;;;6186556;23;20034;-86
2022/12/02 10:11:53;;;;;;;58.97;26.33;;;3.00;99.90;;;;;;6212948;23;20325;-86
2022/12/02 10:14:18;;;;;;;56.08;26.08;;;2.90;99.90;;;;;;6211287;23;20035;-87
2022/12/02 10:16:44;;;;;;;58.80;28.05;;;2.50;99.90;;;;;;6206563;23;20008;-86
2022/12/02 10:19:16;;;;;;;63.25;27.92;;;2.70;99.90;;;;;;6206067;23;20445;-88
2022/12/02 10:21:41;;;;;;;56.00;26.10;;;3.00;99.90;;;;;;6207361;23;20072;-87
2022/12/02 10:24:08;;;;;;;58.05;27.65;;;3.50;99.90;;;;;;6208935;23;20047;-87
2022/12/02 10:26:46;;;;;;;55.38;26.63;;;2.50;99.90;;;;;;6208277;23;20611;-87
2022/12/02 10:29:24;;;;;;;53.83;26.83;;;2.50;99.90;;;;;;6209776;23;20479;-88
2022/12/02 10:31:56;;;;;;;53.08;26.75;;;2.50;99.90;;;;;;6207809;23;20020;-86
2022/12/02 10:34:22;;;;;;;54.33;27.52;;;2.40;99.90;;;;;;6208642;23;20389;-87
2022/12/02 10:36:48;;;;;;;51.35;26.83;;;2.40;99.90;;;;;;6207027;23;20012;-88
2022/12/02 10:39:23;;;;;;;49.97;26.20;;;2.50;99.90;;;;;;6183790;23;20021;-87
2022/12/02 10:41:50;;;;;;;54.08;28.42;;;2.50;99.90;;;;;;6207914;23;20158;-88
2022/12/02 10:44:19;;;;;;;54.67;28.15;;;3.40;99.90;;;;;;6206509;23;20048;-87
2022/12/02 10:46:46;;;;;;;50.72;27.88;;;2.50;99.90;;;;;;6207128;23;20013;-87
2022/12/02 10:49:25;;;;;;;52.78;27.20;;;3.50;99.90;;;;;;6205550;23;20140;-87
2022/12/02 10:51:52;;;;;;;52.15;27.80;;;2.60;99.90;;;;;;6206661;23;20043;-87
2022/12/02 10:54:28;;;;;;;53.70;30.00;;;2.70;99.90;;;;;;6182008;23;20035;-87
2022/12/02 10:56:55;;;;;;;56.65;28.48;;;2.50;99.90;;;;;;6206174;23;20052;-87
2022/12/02 10:59:23;;;;;;;54.65;28.45;;;2.40;99.90;;;;;;6182000;23;20100;-87
2022/12/02 11:01:48;;;;;;;51.42;28.77;;;2.50;99.90;;;;;;6206617;23;20027;-86
2022/12/02 11:04:15;;;;;;;52.28;27.58;;;2.40;99.90;;;;;;6180147;23;20066;-87
2022/12/02 11:06:42;;;;;;;55.72;29.23;;;3.40;99.90;;;;;;6181483;23;20021;-87
2022/12/02 11:09:15;;;;;;;57.20;30.52;;;3.60;99.90;;;;;;6206917;23;20024;-87
2022/12/02 11:11:41;;;;;;;58.70;29.80;;;2.60;99.90;;;;;;6207403;23;20016;-87
2022/12/02 11:14:33;;;;;;;58.60;31.58;;;3.00;99.90;;;;;;6206423;23;20120;-86
2022/12/02 11:17:09;;;;;;;59.30;31.98;;;2.50;99.90;;;;;;6205226;23;20400;-87
2022/12/02 11:19:35;;;;;;;62.58;32.45;;;2.50;99.90;;;;;;6207294;23;20016;-87
2022/12/02 11:22:01;;;;;;;55.17;32.95;;;2.80;99.90;;;;;;6205780;23;20028;-87
2022/12/02 11:24:30;;;;;;;61.13;33.95;;;3.10;99.90;;;;;;6206665;23;20021;-86
2022/12/02 11:26:59;;;;;;;56.70;32.83;;;2.60;99.90;;;;;;6206201;23;20074;-86
2022/12/02 11:29:27;;;;;;;55.55;33.50;;;2.60;99.90;;;;;;6207482;23;20039;-87
2022/12/02 11:32:21;;;;;;;57.72;33.17;;;3.10;99.90;;;;;;6206701;23;20495;-86
2022/12/02 11:35:00;;;;;;;56.55;33.22;;;2.70;99.90;;;;;;6209895;23;20021;-88
2022/12/02 11:37:26;;;;;;;56.60;33.38;;;2.70;99.90;;;;;;6210020;23;20028;-87
2022/12/02 11:40:00;;;;;;;55.90;33.00;;;2.90;99.90;;;;;;6208128;23;20016;-89
2022/12/02 11:42:30;;;;;;;57.83;33.15;;;2.70;99.90;;;;;;6235392;23;20028;-88
2022/12/02 11:45:53;;;;;;;56.85;32.40;;;2.70;99.90;;;;;;6208692;23;20020;-88
2022/12/02 11:48:19;;;;;;;55.72;33.45;;;2.70;99.90;;;;;;6207541;23;20021;-87
2022/12/02 11:50:44;;;;;;;58.40;34.75;;;3.10;99.90;;;;;;6208267;23;20092;-86
2022/12/02 11:53:15;;;;;;;58.58;34.70;;;2.70;99.90;;;;;;6232541;23;20460;-87
2022/12/02 11:55:45;;;;;;;54.45;32.40;;;2.70;99.90;;;;;;6208038;23;20709;-86
2022/12/02 11:58:26;;;;;;;54.13;32.92;;;3.10;99.90;;;;;;6181204;23;20016;-86
2022/12/02 12:01:11;;;;;;;51.90;32.42;;;2.80;99.90;;;;;;6180221;23;20027;-86
2022/12/02 12:03:41;;;;;;;50.92;29.75;;;2.70;99.90;;;;;;6230585;23;20017;-86
2022/12/02 12:06:13;;;;;;;55.25;30.73;;;2.80;99.90;;;;;;6205257;23;20083;-86
2022/12/02 12:08:43;;;;;;;51.33;31.57;;;2.80;99.90;;;;;;6205578;23;20016;-86
2022/12/02 12:11:33;;;;;;;47.45;29.40;;;2.80;99.90;;;;;;6205942;23;20350;-87
2022/12/02 12:14:00;;;;;;;47.55;28.73;;;2.80;99.90;;;;;;6202881;23;20464;-86
2022/12/02 12:16:27;;;;;;;53.38;29.75;;;2.80;99.90;;;;;;6208053;23;20039;-87
2022/12/02 12:18:53;;;;;;;46.08;27.92;;;2.80;99.90;;;;;;6185295;23;20523;-86
2022/12/02 12:21:31;;;;;;;49.63;29.27;;;2.70;99.90;;;;;;6210047;23;20066;-87
2022/12/02 12:24:22;;;;;;;49.95;28.77;;;3.70;99.90;;;;;;6210856;23;20178;-87
2022/12/02 12:26:56;;;;;;;45.05;27.88;;;2.60;99.90;;;;;;6187866;23;20012;-87
2022/12/02 12:29:24;;;;;;;47.25;28.98;;;2.70;99.90;;;;;;6186211;23;20020;-86
2022/12/02 12:31:50;;;;;;;46.58;28.83;;;2.60;99.90;;;;;;6210781;23;20023;-88
2022/12/02 12:34:16;;;;;;;48.58;29.20;;;2.60;99.90;;;;;;6187835;23;20130;-87
2022/12/02 12:36:43;;;;;;;45.70;27.15;;;2.60;99.90;;;;;;6188338;23;20012;-87
2022/12/02 12:39:09;;;;;;;45.28;27.95;;;3.60;99.90;;;;;;6213506;23;20020;-86
2022/12/02 12:41:36;;;;;;;43.75;27.10;;;3.20;99.90;;;;;;6213361;23;20031;-86
2022/12/02 12:44:02;;;;;;;49.25;28.65;;;3.20;99.90;;;;;;6210856;23;20053;-86
2022/12/02 12:46:28;;;;;;;48.95;28.50;;;2.50;99.90;;;;;;6189348;23;20023;-87
2022/12/02 12:48:54;;;;;;;49.40;28.05;;;3.30;99.90;;;;;;6212556;23;20019;-87